sensor_id;sensor_type;location;lat;lon;timestamp;pressure;altitude;pressure_sealevel;temperature;humidity
20628;BME280;10473;42.734;24.258;2023-07-13T00:02:09;92284.78;;;23.18;57.59
20628;BME280;10473;42.734;24.258;2023-07-13T00:04:37;92283.25;;;23.17;57.74
20628;BME280;10473;42.734;24.258;2023-07-13T00:07:05;92281.66;;;23.19;57.29
20628;BME280;10473;42.734;24.258;2023-07-13T00:09:33;92270.81;;;23.07;58.12
20628;BME280;10473;42.734;24.258;2023-07-13T00:12:02;92274.13;;;23.11;57.54
20628;BME280;10473;42.734;24.258;2023-07-13T00:14:31;92268.09;;;23.07;57.54
20628;BME280;10473;42.734;24.258;2023-07-13T00:17:02;92270.34;;;23.08;57.75
20628;BME280;10473;42.734;24.258;2023-07-13T00:19:32;92270.59;;;22.89;58.43
20628;BME280;10473;42.734;24.258;2023-07-13T00:22:02;92266.44;;;22.72;60.36
20628;BME280;10473;42.734;24.258;2023-07-13T00:24:30;92277.38;;;22.81;58.90
20628;BME280;10473;42.734;24.258;2023-07-13T00:26:58;92265.28;;;22.73;59.80
20628;BME280;10473;42.734;24.258;2023-07-13T00:29:26;92272.75;;;22.81;58.94
20628;BME280;10473;42.734;24.258;2023-07-13T00:31:55;92259.22;;;22.69;59.64
20628;BME280;10473;42.734;24.258;2023-07-13T00:34:24;92252.63;;;22.70;59.37
20628;BME280;10473;42.734;24.258;2023-07-13T00:36:52;92259.41;;;22.74;58.65
20628;BME280;10473;42.734;24.258;2023-07-13T00:39:20;92262.13;;;22.74;59.02
20628;BME280;10473;42.734;24.258;2023-07-13T00:41:49;92251.53;;;22.67;59.18
20628;BME280;10473;42.734;24.258;2023-07-13T00:44:18;92247.88;;;22.61;58.56
20628;BME280;10473;42.734;24.258;2023-07-13T00:46:46;92254.66;;;22.66;58.70
20628;BME280;10473;42.734;24.258;2023-07-13T00:49:18;92249.38;;;22.62;58.82
20628;BME280;10473;42.734;24.258;2023-07-13T00:51:49;92247.75;;;22.65;59.29
20628;BME280;10473;42.734;24.258;2023-07-13T00:54:20;92250.34;;;22.68;58.68
20628;BME280;10473;42.734;24.258;2023-07-13T00:56:51;92237.47;;;22.60;59.19
20628;BME280;10473;42.734;24.258;2023-07-13T00:59:20;92244.09;;;22.59;59.12
20628;BME280;10473;42.734;24.258;2023-07-13T01:01:50;92241.03;;;22.57;59.10
20628;BME280;10473;42.734;24.258;2023-07-13T01:04:19;92235.84;;;22.50;59.79
20628;BME280;10473;42.734;24.258;2023-07-13T01:06:47;92236.16;;;22.52;59.06
20628;BME280;10473;42.734;24.258;2023-07-13T01:09:15;92232.63;;;22.55;58.38
20628;BME280;10473;42.734;24.258;2023-07-13T01:11:44;92232.09;;;22.60;58.30
20628;BME280;10473;42.734;24.258;2023-07-13T01:14:12;92236.09;;;22.55;58.69
20628;BME280;10473;42.734;24.258;2023-07-13T01:16:45;92234.34;;;22.49;58.82
20628;BME280;10473;42.734;24.258;2023-07-13T01:19:24;92236.16;;;22.52;58.65
20628;BME280;10473;42.734;24.258;2023-07-13T01:22:04;92243.66;;;22.48;58.85
20628;BME280;10473;42.734;24.258;2023-07-13T01:24:35;92240.19;;;22.47;58.70
20628;BME280;10473;42.734;24.258;2023-07-13T01:27:04;92246.34;;;22.48;58.96
20628;BME280;10473;42.734;24.258;2023-07-13T01:29:34;92237.47;;;22.47;59.04
20628;BME280;10473;42.734;24.258;2023-07-13T01:32:09;92229.78;;;22.46;58.85
20628;BME280;10473;42.734;24.258;2023-07-13T01:34:37;92230.66;;;22.43;59.76
20628;BME280;10473;42.734;24.258;2023-07-13T01:37:10;92226.56;;;22.51;58.75
20628;BME280;10473;42.734;24.258;2023-07-13T01:39:38;92240.59;;;22.46;58.35
20628;BME280;10473;42.734;24.258;2023-07-13T01:42:06;92236.22;;;22.36;59.70
20628;BME280;10473;42.734;24.258;2023-07-13T01:44:34;92235.38;;;22.39;59.06
20628;BME280;10473;42.734;24.258;2023-07-13T01:47:02;92234.63;;;22.38;59.08
20628;BME280;10473;42.734;24.258;2023-07-13T01:49:30;92233.00;;;22.41;58.90
20628;BME280;10473;42.734;24.258;2023-07-13T01:51:58;92218.84;;;22.37;58.39
20628;BME280;10473;42.734;24.258;2023-07-13T01:54:27;92240.13;;;22.35;58.77
20628;BME280;10473;42.734;24.258;2023-07-13T01:56:54;92233.41;;;22.27;58.90
20628;BME280;10473;42.734;24.258;2023-07-13T01:59:22;92237.41;;;22.22;59.28
20628;BME280;10473;42.734;24.258;2023-07-13T02:01:50;92235.78;;;22.25;58.88
20628;BME280;10473;42.734;24.258;2023-07-13T02:04:19;92241.09;;;22.28;58.78
20628;BME280;10473;42.734;24.258;2023-07-13T02:06:46;92245.81;;;22.24;58.79
20628;BME280;10473;42.734;24.258;2023-07-13T02:09:16;92242.03;;;22.22;58.67
20628;BME280;10473;42.734;24.258;2023-07-13T02:11:45;92236.84;;;22.15;58.37
20628;BME280;10473;42.734;24.258;2023-07-13T02:14:13;92235.22;;;22.17;58.04
20628;BME280;10473;42.734;24.258;2023-07-13T02:16:41;92235.50;;;22.07;59.26
20628;BME280;10473;42.734;24.258;2023-07-13T02:19:09;92236.25;;;21.95;61.02
20628;BME280;10473;42.734;24.258;2023-07-13T02:21:37;92248.22;;;21.94;59.83
20628;BME280;10473;42.734;24.258;2023-07-13T02:24:05;92240.66;;;21.89;59.70
20628;BME280;10473;42.734;24.258;2023-07-13T02:26:33;92242.34;;;21.83;61.21
20628;BME280;10473;42.734;24.258;2023-07-13T02:29:03;92242.28;;;21.86;59.19
20628;BME280;10473;42.734;24.258;2023-07-13T02:31:31;92240.00;;;21.69;61.18
20628;BME280;10473;42.734;24.258;2023-07-13T02:33:59;92247.84;;;21.79;59.74
20628;BME280;10473;42.734;24.258;2023-07-13T02:36:26;92239.22;;;21.84;59.50
20628;BME280;10473;42.734;24.258;2023-07-13T02:39:00;92233.94;;;21.81;59.80
20628;BME280;10473;42.734;24.258;2023-07-13T02:41:28;92248.97;;;21.94;59.47
20628;BME280;10473;42.734;24.258;2023-07-13T02:43:57;92249.06;;;21.91;59.46
20628;BME280;10473;42.734;24.258;2023-07-13T02:46:31;92250.00;;;21.84;59.49
20628;BME280;10473;42.734;24.258;2023-07-13T02:49:00;92244.31;;;21.82;59.36
20628;BME280;10473;42.734;24.258;2023-07-13T02:51:27;92245.03;;;21.83;58.92
20628;BME280;10473;42.734;24.258;2023-07-13T02:53:55;92237.91;;;21.76;59.07
20628;BME280;10473;42.734;24.258;2023-07-13T02:56:25;92249.69;;;21.82;59.20
20628;BME280;10473;42.734;24.258;2023-07-13T02:58:54;92236.38;;;21.75;59.19
20628;BME280;10473;42.734;24.258;2023-07-13T03:01:22;92235.78;;;21.68;59.08
20628;BME280;10473;42.734;24.258;2023-07-13T03:03:55;92239.31;;;21.81;59.16
20628;BME280;10473;42.734;24.258;2023-07-13T03:06:23;92237.91;;;21.76;59.32
20628;BME280;10473;42.734;24.258;2023-07-13T03:08:53;92235.63;;;21.75;59.46
20628;BME280;10473;42.734;24.258;2023-07-13T03:11:23;92234.03;;;21.77;59.24
20628;BME280;10473;42.734;24.258;2023-07-13T03:13:57;92231.41;;;21.74;59.57
20628;BME280;10473;42.734;24.258;2023-07-13T03:16:25;92222.28;;;21.68;60.03
20628;BME280;10473;42.734;24.258;2023-07-13T03:18:55;92234.56;;;21.72;60.29
20628;BME280;10473;42.734;24.258;2023-07-13T03:21:23;92234.78;;;21.78;60.13
20628;BME280;10473;42.734;24.258;2023-07-13T03:23:51;92235.63;;;21.75;60.66
20628;BME280;10473;42.734;24.258;2023-07-13T03:26:20;92240.94;;;21.78;60.18
20628;BME280;10473;42.734;24.258;2023-07-13T03:28:48;92235.44;;;21.82;60.49
20628;BME280;10473;42.734;24.258;2023-07-13T03:31:25;92242.53;;;21.76;61.21
20628;BME280;10473;42.734;24.258;2023-07-13T03:33:56;92243.88;;;21.84;60.84
20628;BME280;10473;42.734;24.258;2023-07-13T03:36:27;92242.59;;;21.88;61.22
20628;BME280;10473;42.734;24.258;2023-07-13T03:38:59;92245.91;;;21.80;61.83
20628;BME280;10473;42.734;24.258;2023-07-13T03:41:35;92241.81;;;21.88;61.62
20628;BME280;10473;42.734;24.258;2023-07-13T03:44:03;92234.78;;;21.78;61.82
20628;BME280;10473;42.734;24.258;2023-07-13T03:46:31;92239.06;;;21.75;62.82
20628;BME280;10473;42.734;24.258;2023-07-13T03:49:01;92237.72;;;21.83;62.29
20628;BME280;10473;42.734;24.258;2023-07-13T03:51:29;92245.19;;;21.92;62.49
20628;BME280;10473;42.734;24.258;2023-07-13T03:53:57;92237.75;;;21.96;62.77
20628;BME280;10473;42.734;24.258;2023-07-13T03:56:25;92237.09;;;21.92;63.87
20628;BME280;10473;42.734;24.258;2023-07-13T03:58:53;92241.97;;;21.97;63.33
20628;BME280;10473;42.734;24.258;2023-07-13T04:01:23;92237.22;;;22.01;63.86
20628;BME280;10473;42.734;24.258;2023-07-13T04:03:57;92220.69;;;21.86;63.33
20628;BME280;10473;42.734;24.258;2023-07-13T04:06:29;92241.81;;;22.16;63.85
20628;BME280;10473;42.734;24.258;2023-07-13T04:08:58;92241.94;;;22.25;65.14
20628;BME280;10473;42.734;24.258;2023-07-13T04:11:27;92244.16;;;22.43;64.29
20628;BME280;10473;42.734;24.258;2023-07-13T04:13:58;92244.28;;;22.64;65.41
20628;BME280;10473;42.734;24.258;2023-07-13T04:16:25;92242.66;;;22.92;63.59
20628;BME280;10473;42.734;24.258;2023-07-13T04:18:54;92251.44;;;23.21;63.32
20628;BME280;10473;42.734;24.258;2023-07-13T04:21:28;92241.91;;;23.41;62.50
20628;BME280;10473;42.734;24.258;2023-07-13T04:23:57;92245.28;;;23.67;63.74
20628;BME280;10473;42.734;24.258;2023-07-13T04:26:25;92252.78;;;23.97;63.40
20628;BME280;10473;42.734;24.258;2023-07-13T04:28:53;92254.06;;;24.26;65.01
20628;BME280;10473;42.734;24.258;2023-07-13T04:31:21;92254.53;;;24.55;63.22
20628;BME280;10473;42.734;24.258;2023-07-13T04:33:49;92258.19;;;24.83;62.87
20628;BME280;10473;42.734;24.258;2023-07-13T04:36:17;92245.78;;;25.03;64.20
20628;BME280;10473;42.734;24.258;2023-07-13T04:38:46;92253.91;;;25.34;64.04
20628;BME280;10473;42.734;24.258;2023-07-13T04:41:14;92255.78;;;25.64;65.27
20628;BME280;10473;42.734;24.258;2023-07-13T04:43:42;92252.94;;;25.86;62.77
20628;BME280;10473;42.734;24.258;2023-07-13T04:46:12;92256.56;;;26.19;62.59
20628;BME280;10473;42.734;24.258;2023-07-13T04:48:41;92266.38;;;26.52;61.21
20628;BME280;10473;42.734;24.258;2023-07-13T04:51:09;92251.25;;;26.69;61.08
20628;BME280;10473;42.734;24.258;2023-07-13T04:53:40;92269.31;;;26.99;57.17
20628;BME280;10473;42.734;24.258;2023-07-13T04:56:09;92271.97;;;27.17;57.70
20628;BME280;10473;42.734;24.258;2023-07-13T04:58:36;92265.69;;;27.44;57.14
20628;BME280;10473;42.734;24.258;2023-07-13T05:01:05;92259.72;;;27.54;57.79
20628;BME280;10473;42.734;24.258;2023-07-13T05:03:35;92263.38;;;27.75;59.88
20628;BME280;10473;42.734;24.258;2023-07-13T05:06:05;92268.66;;;28.02;60.38
20628;BME280;10473;42.734;24.258;2023-07-13T05:08:33;92269.00;;;28.18;58.68
20628;BME280;10473;42.734;24.258;2023-07-13T05:11:01;92269.56;;;28.46;58.64
20628;BME280;10473;42.734;24.258;2023-07-13T05:13:30;92264.22;;;28.66;59.16
20628;BME280;10473;42.734;24.258;2023-07-13T05:15:59;92273.56;;;28.88;55.39
20628;BME280;10473;42.734;24.258;2023-07-13T05:18:27;92269.22;;;28.96;53.04
20628;BME280;10473;42.734;24.258;2023-07-13T05:20:59;92281.19;;;29.28;56.48
20628;BME280;10473;42.734;24.258;2023-07-13T05:23:27;92282.00;;;29.48;52.99
20628;BME280;10473;42.734;24.258;2023-07-13T05:25:55;92288.84;;;29.73;52.53
20628;BME280;10473;42.734;24.258;2023-07-13T05:28:23;92275.84;;;30.02;52.98
20628;BME280;10473;42.734;24.258;2023-07-13T05:30:52;92275.16;;;30.07;52.79
20628;BME280;10473;42.734;24.258;2023-07-13T05:33:20;92282.56;;;30.21;52.37
20628;BME280;10473;42.734;24.258;2023-07-13T05:35:48;92280.63;;;30.47;52.31
20628;BME280;10473;42.734;24.258;2023-07-13T05:38:15;92276.75;;;30.59;51.25
20628;BME280;10473;42.734;24.258;2023-07-13T05:40:43;92281.88;;;30.26;50.24
20628;BME280;10473;42.734;24.258;2023-07-13T05:43:11;92281.94;;;30.32;50.87
20628;BME280;10473;42.734;24.258;2023-07-13T05:45:39;92294.16;;;30.56;50.96
20628;BME280;10473;42.734;24.258;2023-07-13T05:48:09;92290.91;;;30.32;51.01
20628;BME280;10473;42.734;24.258;2023-07-13T05:50:36;92296.22;;;30.61;51.71
20628;BME280;10473;42.734;24.258;2023-07-13T05:53:04;92295.50;;;30.86;49.45
20628;BME280;10473;42.734;24.258;2023-07-13T05:55:32;92300.13;;;31.00;50.08
20628;BME280;10473;42.734;24.258;2023-07-13T05:58:01;92306.00;;;31.19;50.34
20628;BME280;10473;42.734;24.258;2023-07-13T06:00:29;92304.34;;;31.01;49.33
20628;BME280;10473;42.734;24.258;2023-07-13T06:02:56;92305.81;;;31.22;50.70
20628;BME280;10473;42.734;24.258;2023-07-13T06:05:26;92314.41;;;31.35;48.36
20628;BME280;10473;42.734;24.258;2023-07-13T06:07:55;92309.84;;;31.58;51.31
20628;BME280;10473;42.734;24.258;2023-07-13T06:10:22;92322.00;;;31.82;49.25
20628;BME280;10473;42.734;24.258;2023-07-13T06:12:51;92323.66;;;32.05;46.54
20628;BME280;10473;42.734;24.258;2023-07-13T06:15:19;92326.00;;;32.23;46.39
20628;BME280;10473;42.734;24.258;2023-07-13T06:17:46;92322.63;;;32.39;45.20
20628;BME280;10473;42.734;24.258;2023-07-13T06:20:14;92328.91;;;32.51;50.25
20628;BME280;10473;42.734;24.258;2023-07-13T06:22:43;92329.94;;;32.59;47.12
20628;BME280;10473;42.734;24.258;2023-07-13T06:25:11;92323.91;;;32.49;46.98
20628;BME280;10473;42.734;24.258;2023-07-13T06:27:38;92332.19;;;32.60;46.91
20628;BME280;10473;42.734;24.258;2023-07-13T06:30:07;92332.69;;;32.64;46.13
20628;BME280;10473;42.734;24.258;2023-07-13T06:32:35;92335.91;;;32.52;47.18
20628;BME280;10473;42.734;24.258;2023-07-13T06:35:03;92326.44;;;32.16;47.71
20628;BME280;10473;42.734;24.258;2023-07-13T06:37:31;92327.88;;;32.01;45.67
20628;BME280;10473;42.734;24.258;2023-07-13T06:40:01;92323.25;;;31.81;46.79
20628;BME280;10473;42.734;24.258;2023-07-13T06:42:30;92324.03;;;31.56;45.92
20628;BME280;10473;42.734;24.258;2023-07-13T06:44:57;92320.19;;;31.17;46.35
20628;BME280;10473;42.734;24.258;2023-07-13T06:47:25;92318.69;;;31.16;42.95
20628;BME280;10473;42.734;24.258;2023-07-13T06:49:54;92314.34;;;31.04;45.97
20628;BME280;10473;42.734;24.258;2023-07-13T06:52:21;92321.28;;;31.00;44.36
20628;BME280;10473;42.734;24.258;2023-07-13T06:54:49;92329.50;;;31.25;44.16
20628;BME280;10473;42.734;24.258;2023-07-13T06:57:19;92321.59;;;31.07;44.43
20628;BME280;10473;42.734;24.258;2023-07-13T06:59:46;92319.66;;;31.13;44.88
20628;BME280;10473;42.734;24.258;2023-07-13T07:02:14;92321.94;;;31.46;43.90
20628;BME280;10473;42.734;24.258;2023-07-13T07:04:42;92320.59;;;31.61;45.05
20628;BME280;10473;42.734;24.258;2023-07-13T07:07:09;92319.66;;;31.39;44.65
20628;BME280;10473;42.734;24.258;2023-07-13T07:09:37;92321.69;;;31.44;44.57
20628;BME280;10473;42.734;24.258;2023-07-13T07:12:05;92318.03;;;31.27;44.64
20628;BME280;10473;42.734;24.258;2023-07-13T07:14:35;92324.91;;;31.42;44.47
20628;BME280;10473;42.734;24.258;2023-07-13T07:17:03;92303.88;;;31.59;45.92
20628;BME280;10473;42.734;24.258;2023-07-13T07:19:31;92312.88;;;31.96;40.85
20628;BME280;10473;42.734;24.258;2023-07-13T07:21:58;92309.25;;;32.16;42.33
20628;BME280;10473;42.734;24.258;2023-07-13T07:24:26;92314.22;;;32.17;42.42
20628;BME280;10473;42.734;24.258;2023-07-13T07:26:54;92311.53;;;32.23;39.67
20628;BME280;10473;42.734;24.258;2023-07-13T07:29:22;92308.69;;;32.48;39.98
20628;BME280;10473;42.734;24.258;2023-07-13T07:31:54;92307.06;;;31.83;39.26
20628;BME280;10473;42.734;24.258;2023-07-13T07:34:21;92307.50;;;31.76;39.42
20628;BME280;10473;42.734;24.258;2023-07-13T07:36:49;92307.84;;;31.89;42.09
20628;BME280;10473;42.734;24.258;2023-07-13T07:39:17;92316.41;;;32.02;39.35
20628;BME280;10473;42.734;24.258;2023-07-13T07:41:45;92315.63;;;31.96;39.44
20628;BME280;10473;42.734;24.258;2023-07-13T07:44:12;92306.63;;;31.96;38.47
20628;BME280;10473;42.734;24.258;2023-07-13T07:46:40;92313.47;;;32.11;41.05
20628;BME280;10473;42.734;24.258;2023-07-13T07:49:09;92311.63;;;32.39;39.11
20628;BME280;10473;42.734;24.258;2023-07-13T07:51:37;92307.72;;;32.62;41.83
20628;BME280;10473;42.734;24.258;2023-07-13T07:54:05;92310.47;;;32.62;38.21
20628;BME280;10473;42.734;24.258;2023-07-13T07:56:33;92315.16;;;32.45;39.27
20628;BME280;10473;42.734;24.258;2023-07-13T07:59:01;92314.75;;;32.21;41.09
20628;BME280;10473;42.734;24.258;2023-07-13T08:01:29;92304.22;;;31.72;40.14
20628;BME280;10473;42.734;24.258;2023-07-13T08:03:57;92316.50;;;31.77;39.94
20628;BME280;10473;42.734;24.258;2023-07-13T08:06:26;92311.47;;;32.12;39.66
20628;BME280;10473;42.734;24.258;2023-07-13T08:08:55;92313.75;;;32.13;40.50
20628;BME280;10473;42.734;24.258;2023-07-13T08:11:23;92313.19;;;32.51;40.22
20628;BME280;10473;42.734;24.258;2023-07-13T08:13:51;92306.00;;;32.70;39.51
20628;BME280;10473;42.734;24.258;2023-07-13T08:16:18;92312.38;;;32.98;40.52
20628;BME280;10473;42.734;24.258;2023-07-13T08:18:46;92306.84;;;32.87;39.57
20628;BME280;10473;42.734;24.258;2023-07-13T08:21:14;92317.38;;;33.22;39.60
20628;BME280;10473;42.734;24.258;2023-07-13T08:23:43;92317.41;;;33.27;39.56
20628;BME280;10473;42.734;24.258;2023-07-13T08:26:11;92317.44;;;33.38;39.53
20628;BME280;10473;42.734;24.258;2023-07-13T08:28:38;92314.69;;;33.49;38.22
20628;BME280;10473;42.734;24.258;2023-07-13T08:31:07;92315.69;;;33.57;38.98
20628;BME280;10473;42.734;24.258;2023-07-13T08:33:36;92300.69;;;33.58;41.89
20628;BME280;10473;42.734;24.258;2023-07-13T08:36:04;92313.19;;;33.76;38.13
20628;BME280;10473;42.734;24.258;2023-07-13T08:38:33;92320.94;;;33.77;37.46
20628;BME280;10473;42.734;24.258;2023-07-13T08:41:11;92313.19;;;33.76;37.58
20628;BME280;10473;42.734;24.258;2023-07-13T08:43:41;92313.94;;;33.71;38.62
20628;BME280;10473;42.734;24.258;2023-07-13T08:46:13;92316.94;;;33.67;39.99
20628;BME280;10473;42.734;24.258;2023-07-13T08:48:45;92312.94;;;33.35;39.56
20628;BME280;10473;42.734;24.258;2023-07-13T08:51:23;92303.41;;;33.25;38.86
20628;BME280;10473;42.734;24.258;2023-07-13T08:53:55;92303.97;;;33.51;37.65
20628;BME280;10473;42.734;24.258;2023-07-13T08:56:27;92302.94;;;33.54;38.42
20628;BME280;10473;42.734;24.258;2023-07-13T08:58:57;92309.19;;;33.49;39.79
20628;BME280;10473;42.734;24.258;2023-07-13T09:01:31;92302.47;;;33.45;37.83
20628;BME280;10473;42.734;24.258;2023-07-13T09:04:05;92307.69;;;33.65;38.60
20628;BME280;10473;42.734;24.258;2023-07-13T09:06:44;92299.91;;;33.19;39.77
20628;BME280;10473;42.734;24.258;2023-07-13T09:09:20;92302.63;;;33.03;39.73
20628;BME280;10473;42.734;24.258;2023-07-13T09:11:59;92299.34;;;32.88;40.29
20628;BME280;10473;42.734;24.258;2023-07-13T09:14:40;92283.50;;;32.55;41.03
20628;BME280;10473;42.734;24.258;2023-07-13T09:17:15;92312.59;;;32.89;41.00
20628;BME280;10473;42.734;24.258;2023-07-13T09:19:47;92300.16;;;32.35;40.81
20628;BME280;10473;42.734;24.258;2023-07-13T09:22:19;92306.59;;;32.80;42.47
20628;BME280;10473;42.734;24.258;2023-07-13T09:24:55;92311.41;;;33.12;40.94
20628;BME280;10473;42.734;24.258;2023-07-13T09:27:35;92311.44;;;33.34;40.39
20628;BME280;10473;42.734;24.258;2023-07-13T09:30:21;92306.38;;;33.16;39.12
20628;BME280;10473;42.734;24.258;2023-07-13T09:32:52;92300.97;;;33.44;43.64
20628;BME280;10473;42.734;24.258;2023-07-13T09:35:23;92304.19;;;33.70;40.48
20628;BME280;10473;42.734;24.258;2023-07-13T09:37:58;92294.94;;;33.89;41.08
20628;BME280;10473;42.734;24.258;2023-07-13T09:40:35;92296.69;;;33.98;40.43
20628;BME280;10473;42.734;24.258;2023-07-13T09:43:08;92297.94;;;34.02;39.65
20628;BME280;10473;42.734;24.258;2023-07-13T09:45:38;92299.69;;;33.94;39.36
20628;BME280;10473;42.734;24.258;2023-07-13T09:48:12;92283.19;;;33.94;40.15
20628;BME280;10473;42.734;24.258;2023-07-13T09:50:41;92292.41;;;34.13;40.34
20628;BME280;10473;42.734;24.258;2023-07-13T09:53:12;92278.72;;;33.58;40.43
20628;BME280;10473;42.734;24.258;2023-07-13T09:55:42;92279.94;;;33.35;40.24
20628;BME280;10473;42.734;24.258;2023-07-13T09:58:14;92287.84;;;32.78;41.43
20628;BME280;10473;42.734;24.258;2023-07-13T10:00:43;92290.63;;;32.95;41.55
20628;BME280;10473;42.734;24.258;2023-07-13T10:03:17;92282.78;;;32.60;43.11
20628;BME280;10473;42.734;24.258;2023-07-13T10:05:48;92277.44;;;32.35;43.40
20628;BME280;10473;42.734;24.258;2023-07-13T10:08:20;92261.84;;;31.73;42.93
20628;BME280;10473;42.734;24.258;2023-07-13T10:10:54;92266.91;;;31.80;45.38
20628;BME280;10473;42.734;24.258;2023-07-13T10:13:32;92265.53;;;32.01;44.83
20628;BME280;10473;42.734;24.258;2023-07-13T10:16:04;92268.28;;;32.01;45.28
20628;BME280;10473;42.734;24.258;2023-07-13T10:18:39;92267.78;;;31.66;44.95
20628;BME280;10473;42.734;24.258;2023-07-13T10:21:11;92261.00;;;31.93;44.74
20628;BME280;10473;42.734;24.258;2023-07-13T10:23:39;92262.41;;;32.25;44.20
20628;BME280;10473;42.734;24.258;2023-07-13T10:26:14;92261.53;;;32.55;44.25
20628;BME280;10473;42.734;24.258;2023-07-13T10:28:47;92260.91;;;32.82;42.68
20628;BME280;10473;42.734;24.258;2023-07-13T10:31:18;92272.41;;;33.14;41.89
20628;BME280;10473;42.734;24.258;2023-07-13T10:33:47;92250.69;;;33.21;41.88
20628;BME280;10473;42.734;24.258;2023-07-13T10:36:21;92262.47;;;33.49;40.85
20628;BME280;10473;42.734;24.258;2023-07-13T10:38:51;92244.75;;;33.34;39.82
20628;BME280;10473;42.734;24.258;2023-07-13T10:41:22;92253.22;;;33.52;42.07
20628;BME280;10473;42.734;24.258;2023-07-13T10:43:55;92265.44;;;33.73;41.41
20628;BME280;10473;42.734;24.258;2023-07-13T10:46:25;92266.47;;;33.81;39.48
20628;BME280;10473;42.734;24.258;2023-07-13T10:48:59;92262.69;;;33.90;42.51
20628;BME280;10473;42.734;24.258;2023-07-13T10:51:30;92233.19;;;33.85;40.02
20628;BME280;10473;42.734;24.258;2023-07-13T10:54:18;92261.69;;;33.71;38.29
20628;BME280;10473;42.734;24.258;2023-07-13T10:56:51;92254.47;;;33.35;39.23
20628;BME280;10473;42.734;24.258;2023-07-13T10:59:26;92254.19;;;33.71;40.55
20628;BME280;10473;42.734;24.258;2023-07-13T11:02:00;92244.97;;;33.80;40.64
20628;BME280;10473;42.734;24.258;2023-07-13T11:04:41;92234.88;;;34.04;39.53
20628;BME280;10473;42.734;24.258;2023-07-13T11:07:23;92235.13;;;34.06;37.75
20628;BME280;10473;42.734;24.258;2023-07-13T11:09:51;92229.81;;;34.30;38.54
20628;BME280;10473;42.734;24.258;2023-07-13T11:12:49;92224.53;;;34.38;35.83
20628;BME280;10473;42.734;24.258;2023-07-13T11:15:32;92217.31;;;34.18;36.58
20628;BME280;10473;42.734;24.258;2023-07-13T11:18:03;92220.47;;;34.44;34.03
20628;BME280;10473;42.734;24.258;2023-07-13T11:20:37;92224.53;;;34.38;35.62
20628;BME280;10473;42.734;24.258;2023-07-13T11:23:27;92223.56;;;34.30;35.80
20628;BME280;10473;42.734;24.258;2023-07-13T11:25:56;92220.66;;;33.95;36.03
20628;BME280;10473;42.734;24.258;2023-07-13T11:28:27;92213.25;;;33.51;36.49
20628;BME280;10473;42.734;24.258;2023-07-13T11:31:10;92212.22;;;33.27;37.13
20628;BME280;10473;42.734;24.258;2023-07-13T11:33:51;92209.97;;;32.92;37.75
20628;BME280;10473;42.734;24.258;2023-07-13T11:36:21;92224.22;;;33.02;37.43
20628;BME280;10473;42.734;24.258;2023-07-13T11:38:58;92221.47;;;33.13;37.52
20628;BME280;10473;42.734;24.258;2023-07-13T11:41:33;92211.47;;;33.26;37.03
20628;BME280;10473;42.734;24.258;2023-07-13T11:44:10;92205.75;;;33.35;37.49
20628;BME280;10473;42.734;24.258;2023-07-13T11:46:44;92212.97;;;33.16;36.57
20628;BME280;10473;42.734;24.258;2023-07-13T11:49:15;92213.72;;;32.95;36.54
20628;BME280;10473;42.734;24.258;2023-07-13T11:51:44;92204.22;;;33.18;38.04
20628;BME280;10473;42.734;24.258;2023-07-13T11:54:23;92204.22;;;33.45;36.35
20628;BME280;10473;42.734;24.258;2023-07-13T11:56:52;92202.19;;;33.68;37.03
20628;BME280;10473;42.734;24.258;2023-07-13T11:59:21;92201.94;;;33.60;37.14
20628;BME280;10473;42.734;24.258;2023-07-13T12:01:52;92211.94;;;33.74;36.57
20628;BME280;10473;42.734;24.258;2023-07-13T12:04:23;92188.44;;;33.84;35.91
20628;BME280;10473;42.734;24.258;2023-07-13T12:06:57;92199.38;;;34.06;36.20
20628;BME280;10473;42.734;24.258;2023-07-13T12:09:27;92194.69;;;33.74;36.66
20628;BME280;10473;42.734;24.258;2023-07-13T12:11:56;92193.91;;;33.90;38.23
20628;BME280;10473;42.734;24.258;2023-07-13T12:14:24;92191.19;;;33.84;35.16
20628;BME280;10473;42.734;24.258;2023-07-13T12:16:55;92197.22;;;33.61;34.79
20628;BME280;10473;42.734;24.258;2023-07-13T12:19:25;92182.44;;;33.69;35.21
20628;BME280;10473;42.734;24.258;2023-07-13T12:21:56;92177.72;;;33.59;36.27
20628;BME280;10473;42.734;24.258;2023-07-13T12:24:25;92168.94;;;33.71;34.33
20628;BME280;10473;42.734;24.258;2023-07-13T12:26:55;92170.44;;;33.83;35.80
20628;BME280;10473;42.734;24.258;2023-07-13T12:29:27;92172.16;;;33.92;34.28
20628;BME280;10473;42.734;24.258;2023-07-13T12:31:56;92163.06;;;34.13;34.20
20628;BME280;10473;42.734;24.258;2023-07-13T12:34:25;92169.28;;;34.30;34.05
20628;BME280;10473;42.734;24.258;2023-07-13T12:36:54;92174.00;;;34.30;33.22
20628;BME280;10473;42.734;24.258;2023-07-13T12:39:35;92163.50;;;34.28;34.07
20628;BME280;10473;42.734;24.258;2023-07-13T12:42:18;92172.91;;;34.49;32.22
20628;BME280;10473;42.734;24.258;2023-07-13T12:44:48;92169.50;;;34.27;32.87
20628;BME280;10473;42.734;24.258;2023-07-13T12:47:20;92167.88;;;33.96;32.25
20628;BME280;10473;42.734;24.258;2023-07-13T12:49:54;92164.81;;;34.16;33.48
20628;BME280;10473;42.734;24.258;2023-07-13T12:52:28;92156.94;;;34.42;33.12
20628;BME280;10473;42.734;24.258;2023-07-13T12:54:59;92158.88;;;34.53;32.48
20628;BME280;10473;42.734;24.258;2023-07-13T12:57:30;92161.06;;;34.60;32.01
20628;BME280;10473;42.734;24.258;2023-07-13T12:59:58;92161.53;;;34.69;31.41
20628;BME280;10473;42.734;24.258;2023-07-13T13:02:30;92156.03;;;34.69;32.60
20628;BME280;10473;42.734;24.258;2023-07-13T13:05:01;92156.19;;;34.82;32.73
20628;BME280;10473;42.734;24.258;2023-07-13T13:07:30;92155.47;;;34.76;32.69